Time;durP1;ratioP1;P1;durP2;ratioP2;P2;SDS_P1;SDS_P2;PMS_P1;PMS_P2;Temp;Humidity;BMP_temperature;BMP_pressure;BME280_temperature;BME280_humidity;BME280_pressure;Samples;Min_cycle;Max_cycle;Signal;HPM_P1;HPM_P2
2022/11/06 00:00:55;;;;;;;3.20;2.60;;;8.50;99.90;;;;;;5114127;28;20423;-72
2022/11/06 00:03:21;;;;;;;4.70;2.00;;;8.50;99.90;;;;;;5114180;28;20486;-72
2022/11/06 00:08:37;;;;;;;3.00;2.50;;;8.50;99.90;;;;;;5113927;28;20180;-72
2022/11/06 00:11:12;;;;;;;2.87;1.90;;;8.50;99.90;;;;;;5112324;28;20434;-73
2022/11/06 00:13:38;;;;;;;6.80;2.13;;;8.50;99.90;;;;;;5113109;28;20942;-72
2022/11/06 00:16:05;;;;;;;5.53;2.23;;;8.50;99.90;;;;;;5113368;27;20925;-73
2022/11/06 00:18:32;;;;;;;3.30;1.87;;;8.40;99.90;;;;;;5113413;28;20459;-73
2022/11/06 00:20:58;;;;;;;2.77;1.83;;;8.50;99.90;;;;;;5113656;28;20435;-73
2022/11/06 00:23:23;;;;;;;6.50;2.17;;;8.50;99.90;;;;;;5112160;28;20426;-73
2022/11/06 00:25:54;;;;;;;4.27;1.90;;;8.50;99.90;;;;;;5113181;28;20189;-73
2022/11/06 00:28:20;;;;;;;2.00;1.63;;;8.50;99.90;;;;;;5113175;27;20626;-72
2022/11/06 00:30:45;;;;;;;3.70;1.77;;;8.50;99.90;;;;;;5112254;28;20518;-72
2022/11/06 00:33:11;;;;;;;4.50;2.03;;;8.40;99.90;;;;;;5113398;28;20188;-72
2022/11/06 00:35:38;;;;;;;4.10;2.00;;;8.40;99.90;;;;;;5112827;28;20199;-72
2022/11/06 00:38:04;;;;;;;3.00;2.10;;;8.40;99.90;;;;;;5113107;28;20553;-72
2022/11/06 00:40:29;;;;;;;3.47;1.87;;;8.30;99.90;;;;;;5112910;28;20427;-73
2022/11/06 00:42:56;;;;;;;4.57;2.10;;;8.30;99.90;;;;;;5113382;28;20395;-72
2022/11/06 00:45:24;;;;;;;8.60;2.50;;;8.30;99.90;;;;;;5112251;28;20176;-72
2022/11/06 00:47:49;;;;;;;4.27;2.10;;;8.30;99.90;;;;;;5113245;28;20975;-72
2022/11/06 00:50:16;;;;;;;4.33;2.10;;;8.30;99.90;;;;;;5113024;28;20473;-72
2022/11/06 00:52:42;;;;;;;4.30;2.50;;;8.30;99.90;;;;;;5111084;28;20180;-72
2022/11/06 00:55:08;;;;;;;4.50;2.57;;;8.30;99.90;;;;;;5110628;28;20457;-73
2022/11/06 00:57:33;;;;;;;10.90;2.90;;;8.20;99.90;;;;;;5112680;28;20415;-72
2022/11/06 00:59:59;;;;;;;3.50;2.20;;;8.20;99.90;;;;;;5112786;28;20192;-72
2022/11/06 01:02:24;;;;;;;7.23;1.87;;;8.20;99.90;;;;;;5112802;28;20165;-72
2022/11/06 01:04:50;;;;;;;2.53;1.43;;;8.30;99.90;;;;;;5112430;28;20169;-72
2022/11/06 01:07:15;;;;;;;2.90;1.93;;;8.30;99.90;;;;;;5112861;28;20172;-71
2022/11/06 01:09:41;;;;;;;2.07;1.70;;;8.30;99.90;;;;;;5111172;28;20238;-72
2022/11/06 01:12:06;;;;;;;3.90;2.00;;;8.40;99.90;;;;;;5112817;28;20169;-72
2022/11/06 01:14:32;;;;;;;2.70;2.03;;;8.40;99.90;;;;;;5112350;28;20207;-72
2022/11/06 01:16:57;;;;;;;3.70;2.00;;;8.40;99.90;;;;;;5112068;28;20173;-72
2022/11/06 01:19:23;;;;;;;3.00;1.70;;;8.40;99.90;;;;;;5110880;28;20252;-72
2022/11/06 01:21:51;;;;;;;2.90;1.43;;;8.40;99.90;;;;;;5112426;28;20169;-72
2022/11/06 01:24:20;;;;;;;4.27;2.50;;;8.40;99.90;;;;;;5112225;28;20234;-72
2022/11/06 01:26:46;;;;;;;2.77;1.60;;;8.40;99.90;;;;;;5112073;28;20433;-72
2022/11/06 01:29:14;;;;;;;4.30;1.07;;;8.40;99.90;;;;;;5111024;28;20410;-72
2022/11/06 01:31:40;;;;;;;4.30;1.47;;;8.40;99.90;;;;;;5112667;28;20169;-72
2022/11/06 01:34:06;;;;;;;4.30;1.97;;;8.50;99.90;;;;;;5112252;28;20447;-72
2022/11/06 01:36:32;;;;;;;6.40;2.60;;;8.40;99.90;;;;;;5111927;28;20844;-72
2022/11/06 01:39:01;;;;;;;4.40;1.90;;;8.50;99.90;;;;;;5112208;28;20217;-72
2022/11/06 01:41:33;;;;;;;1.73;1.10;;;8.40;99.90;;;;;;5111810;28;20430;-72
2022/11/06 01:44:02;;;;;;;9.37;1.83;;;8.50;99.90;;;;;;5112539;28;20397;-72
2022/11/06 01:46:30;;;;;;;1.83;1.50;;;8.40;99.90;;;;;;5112236;28;20793;-73
2022/11/06 01:49:03;;;;;;;7.73;1.33;;;8.40;99.90;;;;;;5110770;28;20414;-72
2022/11/06 01:51:34;;;;;;;3.53;1.80;;;8.40;99.90;;;;;;5112235;28;20465;-72
2022/11/06 01:54:03;;;;;;;4.87;1.23;;;8.40;99.90;;;;;;5099922;28;20454;-72
2022/11/06 01:56:29;;;;;;;2.67;1.30;;;8.40;99.90;;;;;;5112097;28;20414;-72
2022/11/06 01:58:54;;;;;;;7.00;1.40;;;8.40;99.90;;;;;;5110392;28;20938;-72
2022/11/06 02:01:20;;;;;;;3.37;1.87;;;8.40;99.90;;;;;;5109715;28;20189;-72
2022/11/06 02:03:56;;;;;;;5.40;2.37;;;8.40;99.90;;;;;;5111761;28;20501;-73
2022/11/06 02:06:23;;;;;;;3.10;1.43;;;8.30;99.90;;;;;;5112068;28;20402;-73
2022/11/06 02:08:48;;;;;;;5.80;2.27;;;8.40;99.90;;;;;;5111918;28;20509;-73
2022/11/06 02:11:14;;;;;;;2.90;2.30;;;8.40;99.90;;;;;;5091966;28;20458;-73
2022/11/06 02:14:13;;;;;;;5.53;1.50;;;8.30;99.90;;;;;;5098054;28;20200;-73
2022/11/06 02:16:50;;;;;;;4.77;1.47;;;8.40;99.90;;;;;;5112273;28;20222;-73
2022/11/06 02:19:51;;;;;;;5.53;1.73;;;8.40;99.90;;;;;;5111932;28;20471;-73
2022/11/06 02:22:27;;;;;;;2.67;1.53;;;8.30;99.90;;;;;;5111906;28;20896;-72
2022/11/06 02:25:40;;;;;;;6.57;1.77;;;8.30;99.90;;;;;;5111332;28;20422;-72
2022/11/06 02:28:13;;;;;;;5.47;1.80;;;8.30;99.90;;;;;;5098108;28;20453;-72
2022/11/06 02:30:44;;;;;;;6.50;2.00;;;8.30;99.90;;;;;;5104787;28;20449;-72
2022/11/06 02:33:16;;;;;;;2.80;1.90;;;8.30;99.90;;;;;;5091753;28;20402;-73
2022/11/06 02:35:47;;;;;;;4.60;1.77;;;8.20;99.90;;;;;;5110950;28;20883;-75
2022/11/06 02:38:20;;;;;;;4.13;1.97;;;8.20;99.90;;;;;;5111879;28;20410;-73
2022/11/06 02:40:51;;;;;;;3.50;1.20;;;8.20;99.90;;;;;;5113657;28;20431;-72
2022/11/06 02:43:20;;;;;;;5.83;1.87;;;8.20;99.90;;;;;;5115790;28;20398;-72
2022/11/06 02:46:05;;;;;;;4.20;1.47;;;8.30;99.90;;;;;;5115262;28;20803;-72
2022/11/06 02:48:36;;;;;;;2.60;1.63;;;8.30;99.90;;;;;;5115560;28;20406;-72
2022/11/06 02:51:04;;;;;;;9.70;1.87;;;8.30;99.90;;;;;;5115022;28;20469;-72
2022/11/06 02:53:31;;;;;;;9.87;1.63;;;8.30;99.90;;;;;;5115218;28;20493;-72
2022/11/06 02:56:03;;;;;;;2.37;1.53;;;8.20;99.90;;;;;;5114144;28;20425;-74
2022/11/06 02:58:42;;;;;;;3.63;1.50;;;8.20;99.90;;;;;;5115298;28;20444;-72
2022/11/06 03:01:17;;;;;;;5.60;1.80;;;8.20;99.90;;;;;;5114646;28;20441;-72
2022/11/06 03:03:48;;;;;;;3.27;2.07;;;8.20;99.90;;;;;;5114944;28;20457;-72
2022/11/06 03:06:34;;;;;;;5.33;1.90;;;8.20;99.90;;;;;;5114559;28;20498;-72
2022/11/06 03:09:11;;;;;;;5.37;1.60;;;8.30;99.90;;;;;;5114952;28;20411;-72
2022/11/06 03:11:37;;;;;;;1.80;1.20;;;8.20;99.90;;;;;;5115029;28;20919;-72
2022/11/06 03:14:03;;;;;;;5.23;1.70;;;8.20;99.90;;;;;;5114559;28;20454;-72
2022/11/06 03:17:05;;;;;;;6.03;1.70;;;8.10;99.90;;;;;;5114372;28;20964;-72
2022/11/06 03:20:09;;;;;;;3.50;1.40;;;8.20;99.90;;;;;;5114951;28;20237;-73
2022/11/06 03:22:42;;;;;;;5.33;1.83;;;8.20;99.90;;;;;;5103395;28;20434;-72
2022/11/06 03:25:22;;;;;;;2.90;1.67;;;8.10;99.90;;;;;;5114206;28;20429;-72
2022/11/06 03:28:10;;;;;;;4.10;1.90;;;8.20;99.90;;;;;;5114914;28;20403;-72
2022/11/06 03:30:41;;;;;;;6.70;1.60;;;8.20;99.90;;;;;;5114440;28;20430;-72
2022/11/06 03:33:28;;;;;;;2.67;1.70;;;8.20;99.90;;;;;;5114781;27;20423;-72
2022/11/06 03:36:29;;;;;;;1.87;1.37;;;8.20;99.90;;;;;;5111955;28;20415;-72
2022/11/06 03:39:08;;;;;;;1.77;1.40;;;8.20;99.90;;;;;;5110587;28;20403;-71
2022/11/06 03:42:11;;;;;;;4.97;1.43;;;8.10;99.90;;;;;;5114369;28;20767;-72
2022/11/06 03:44:42;;;;;;;4.57;1.70;;;8.10;99.90;;;;;;5099787;28;20502;-72
2022/11/06 03:47:25;;;;;;;3.00;1.30;;;8.10;99.90;;;;;;5113052;28;20406;-72
2022/11/06 03:50:06;;;;;;;1.87;1.27;;;8.10;99.90;;;;;;5114494;28;20411;-73
2022/11/06 03:52:43;;;;;;;4.47;1.30;;;8.10;99.90;;;;;;5113683;28;20394;-72
2022/11/06 03:55:15;;;;;;;3.97;1.47;;;8.10;99.90;;;;;;5113325;28;20493;-72
2022/11/06 03:57:54;;;;;;;3.70;1.40;;;8.10;99.90;;;;;;5114308;28;20807;-72
2022/11/06 04:00:19;;;;;;;1.73;1.23;;;8.10;99.90;;;;;;5113761;28;20476;-73
2022/11/06 04:03:04;;;;;;;3.00;1.60;;;8.10;99.90;;;;;;5112578;28;20450;-73
2022/11/06 04:05:42;;;;;;;2.13;1.37;;;8.10;99.90;;;;;;5113735;28;20175;-72
2022/11/06 04:14:03;;;;;;;3.63;2.53;;;8.00;99.90;;;;;;5114318;28;20401;-73
2022/11/06 04:16:37;;;;;;;7.07;2.37;;;7.90;99.90;;;;;;5093408;28;20407;-73
2022/11/06 04:19:05;;;;;;;7.33;1.93;;;7.80;99.90;;;;;;5110290;28;20423;-73
2022/11/06 04:21:42;;;;;;;3.53;1.97;;;7.70;99.90;;;;;;5112556;28;20434;-72
2022/11/06 04:27:48;;;;;;;3.13;1.63;;;7.50;99.90;;;;;;5113863;28;20998;-72
2022/11/06 04:30:16;;;;;;;3.67;2.10;;;7.50;99.90;;;;;;5112201;28;20438;-72
2022/11/06 04:33:03;;;;;;;7.83;2.10;;;7.40;99.90;;;;;;5113205;28;20782;-72
2022/11/06 04:36:01;;;;;;;2.53;1.90;;;7.20;99.90;;;;;;5113078;28;20943;-72
2022/11/06 04:38:46;;;;;;;3.77;2.23;;;7.20;99.90;;;;;;5099542;28;20453;-72
2022/11/06 04:41:14;;;;;;;4.23;1.80;;;7.20;99.90;;;;;;5110855;28;20433;-73
2022/11/06 04:43:46;;;;;;;6.20;2.07;;;7.10;99.90;;;;;;5112843;28;20406;-72
2022/11/06 04:46:18;;;;;;;4.30;1.57;;;7.10;99.90;;;;;;5113156;28;20422;-72
2022/11/06 04:48:45;;;;;;;6.80;1.93;;;7.10;99.90;;;;;;5113495;28;20402;-71
2022/11/06 04:51:13;;;;;;;3.37;1.63;;;7.10;99.90;;;;;;5120027;27;20922;-72
2022/11/06 04:53:39;;;;;;;4.30;2.00;;;7.00;99.90;;;;;;5118602;27;20450;-73
2022/11/06 04:56:19;;;;;;;4.90;1.60;;;6.90;99.90;;;;;;5112971;28;20405;-72
2022/11/06 04:58:45;;;;;;;4.70;3.00;;;6.90;99.90;;;;;;5113269;27;20402;-72
2022/11/06 05:01:10;;;;;;;3.50;2.10;;;6.90;99.90;;;;;;5111866;28;20506;-72
2022/11/06 05:03:36;;;;;;;4.13;2.50;;;6.90;99.90;;;;;;5112819;28;20173;-72
2022/11/06 05:06:01;;;;;;;3.60;1.60;;;6.80;99.90;;;;;;5112824;28;20290;-72
2022/11/06 05:08:27;;;;;;;3.37;1.90;;;6.80;99.90;;;;;;5111800;28;20221;-72
2022/11/06 05:10:53;;;;;;;7.30;2.10;;;6.80;99.90;;;;;;5112909;28;20187;-72
2022/11/06 05:13:19;;;;;;;4.47;4.03;;;6.80;99.90;;;;;;5112758;28;20175;-72
2022/11/06 05:15:44;;;;;;;3.90;2.50;;;6.80;99.90;;;;;;5112794;28;20443;-72
2022/11/06 05:18:10;;;;;;;2.00;1.73;;;6.80;99.90;;;;;;5112894;28;20244;-73
2022/11/06 05:20:35;;;;;;;4.17;2.07;;;6.80;99.90;;;;;;5112826;28;20246;-72
2022/11/06 05:23:01;;;;;;;9.57;2.83;;;6.80;99.90;;;;;;5112526;28;20185;-73
2022/11/06 05:25:35;;;;;;;6.33;2.20;;;6.80;99.90;;;;;;5112547;28;20165;-72
2022/11/06 05:28:01;;;;;;;9.97;2.23;;;6.80;99.90;;;;;;5111602;28;20172;-73
2022/11/06 05:30:27;;;;;;;2.97;2.27;;;6.80;99.90;;;;;;5112649;28;20426;-72
2022/11/06 05:32:53;;;;;;;3.20;2.40;;;6.80;99.90;;;;;;5112474;28;20472;-72
2022/11/06 05:35:19;;;;;;;6.20;1.73;;;6.70;99.90;;;;;;5112431;28;20955;-73
2022/11/06 05:37:45;;;;;;;3.87;2.00;;;6.70;99.90;;;;;;5111390;28;20406;-72
2022/11/06 05:40:11;;;;;;;7.20;1.73;;;6.80;99.90;;;;;;5111134;28;20426;-73
2022/11/06 05:42:38;;;;;;;1.70;1.40;;;6.80;99.90;;;;;;5111125;28;20418;-72
2022/11/06 05:45:05;;;;;;;5.30;2.50;;;6.90;99.90;;;;;;5112206;28;20696;-72
2022/11/06 05:47:30;;;;;;;3.57;2.17;;;6.90;99.90;;;;;;5110801;28;20415;-72
2022/11/06 05:49:56;;;;;;;10.13;2.17;;;6.90;99.90;;;;;;5112220;28;20803;-72
2022/11/06 05:52:21;;;;;;;4.60;1.80;;;6.90;99.90;;;;;;5112104;28;20173;-72
2022/11/06 05:54:47;;;;;;;3.40;1.47;;;7.00;99.90;;;;;;5111774;28;20544;-72
2022/11/06 05:57:12;;;;;;;5.33;2.30;;;7.00;99.90;;;;;;5112152;28;20653;-72
2022/11/06 05:59:38;;;;;;;1.50;1.30;;;7.00;99.90;;;;;;5111981;28;20271;-73
2022/11/06 06:02:04;;;;;;;2.90;1.53;;;7.00;99.90;;;;;;5111947;28;20173;-73
2022/11/06 06:04:29;;;;;;;2.37;1.57;;;7.00;99.90;;;;;;5111689;28;20851;-73
2022/11/06 06:06:55;;;;;;;2.10;1.63;;;7.00;99.90;;;;;;5111056;28;20263;-72
2022/11/06 06:09:20;;;;;;;5.20;2.30;;;7.00;99.90;;;;;;5112000;28;20256;-72
2022/11/06 06:11:50;;;;;;;2.40;1.67;;;7.00;99.90;;;;;;5111975;28;20173;-72
2022/11/06 06:14:16;;;;;;;3.87;2.40;;;7.00;99.90;;;;;;5110480;28;20456;-73
2022/11/06 06:16:41;;;;;;;3.00;2.30;;;7.00;99.90;;;;;;5115967;28;20414;-73
2022/11/06 06:19:07;;;;;;;4.10;3.00;;;7.00;99.90;;;;;;5116109;28;20536;-72
2022/11/06 06:21:32;;;;;;;3.07;1.57;;;7.00;99.90;;;;;;5116033;28;20204;-73
2022/11/06 06:23:58;;;;;;;3.53;2.10;;;6.90;99.90;;;;;;5115639;28;20184;-73
2022/11/06 06:26:23;;;;;;;2.93;1.50;;;6.90;99.90;;;;;;5115946;28;20252;-73
2022/11/06 06:28:49;;;;;;;2.87;1.83;;;7.00;99.90;;;;;;5116007;28;20177;-73
2022/11/06 06:31:15;;;;;;;1.90;1.37;;;7.00;99.90;;;;;;5115533;28;20231;-74
2022/11/06 06:33:40;;;;;;;8.63;2.07;;;6.90;99.90;;;;;;5115775;28;20253;-73
2022/11/06 06:36:06;;;;;;;3.70;2.13;;;6.90;99.90;;;;;;5115413;28;20629;-73
2022/11/06 06:38:32;;;;;;;3.77;2.30;;;6.90;99.90;;;;;;5115682;28;20241;-73
2022/11/06 06:41:02;;;;;;;4.23;2.30;;;6.90;99.90;;;;;;5115668;28;20469;-73
2022/11/06 06:43:28;;;;;;;5.80;2.97;;;7.00;99.90;;;;;;5115591;28;20180;-73
2022/11/06 06:46:00;;;;;;;2.33;1.93;;;7.00;99.90;;;;;;5114184;28;20411;-73
2022/11/06 06:48:26;;;;;;;3.60;1.93;;;7.00;99.90;;;;;;5115629;28;20645;-73
2022/11/06 06:50:54;;;;;;;3.40;1.80;;;7.10;99.90;;;;;;5114944;28;20442;-73
2022/11/06 06:53:20;;;;;;;3.97;1.93;;;7.10;99.90;;;;;;5115312;28;20787;-73
2022/11/06 06:55:45;;;;;;;2.13;1.57;;;7.10;99.90;;;;;;5114512;28;20445;-73
2022/11/06 06:58:11;;;;;;;4.27;2.53;;;7.20;99.90;;;;;;5114842;28;20169;-73
2022/11/06 07:00:36;;;;;;;2.50;2.23;;;7.20;99.90;;;;;;5113761;28;20189;-73
2022/11/06 07:03:02;;;;;;;4.80;2.13;;;7.30;99.90;;;;;;5115211;28;20256;-73
2022/11/06 07:05:27;;;;;;;9.60;2.40;;;7.40;99.90;;;;;;5114483;28;20260;-73
2022/11/06 07:07:53;;;;;;;2.57;2.07;;;7.40;99.90;;;;;;5114224;28;20169;-72
2022/11/06 07:10:18;;;;;;;4.87;2.37;;;7.50;99.90;;;;;;5114898;28;20197;-73
2022/11/06 07:12:44;;;;;;;3.83;2.17;;;7.60;99.90;;;;;;5115280;28;20168;-73
2022/11/06 07:15:10;;;;;;;6.10;2.43;;;7.60;99.90;;;;;;5114226;28;20193;-73
2022/11/06 07:17:36;;;;;;;3.30;1.93;;;7.70;99.90;;;;;;5114644;28;20204;-73
2022/11/06 07:20:02;;;;;;;6.00;2.43;;;7.80;99.90;;;;;;5114604;28;20964;-73
2022/11/06 07:22:28;;;;;;;4.30;2.20;;;7.90;99.90;;;;;;5114641;28;20169;-73
2022/11/06 07:24:54;;;;;;;5.03;2.30;;;7.90;99.90;;;;;;5114437;28;20477;-73
2022/11/06 07:27:19;;;;;;;5.63;2.30;;;8.00;99.90;;;;;;5113500;28;20945;-73
2022/11/06 07:29:45;;;;;;;2.67;1.80;;;8.00;99.90;;;;;;5114406;28;20325;-73
2022/11/06 07:32:11;;;;;;;5.60;2.50;;;8.10;99.90;;;;;;5114770;28;20200;-73
2022/11/06 07:34:39;;;;;;;8.27;2.40;;;8.10;99.90;;;;;;5113513;28;20184;-73
2022/11/06 07:37:06;;;;;;;2.80;1.83;;;8.30;99.90;;;;;;5114662;27;20532;-73
2022/11/06 07:39:32;;;;;;;2.60;1.77;;;8.40;99.90;;;;;;5112540;28;20469;-73
2022/11/06 07:41:57;;;;;;;3.17;1.83;;;8.60;99.90;;;;;;5114465;28;20770;-74
2022/11/06 07:44:23;;;;;;;6.67;2.10;;;9.00;99.90;;;;;;5114129;28;20200;-74
2022/11/06 07:46:48;;;;;;;2.80;1.77;;;9.50;99.90;;;;;;5114151;28;20247;-74
2022/11/06 07:49:15;;;;;;;3.97;1.80;;;10.00;99.90;;;;;;5114166;28;20255;-73
2022/11/06 07:51:41;;;;;;;3.87;2.03;;;10.40;99.90;;;;;;5114336;28;20211;-75
2022/11/06 07:54:07;;;;;;;3.30;2.00;;;11.00;99.90;;;;;;5113941;28;20521;-74
2022/11/06 07:56:32;;;;;;;4.40;1.80;;;11.40;99.90;;;;;;5114187;28;20790;-75
2022/11/06 07:58:58;;;;;;;3.53;1.97;;;11.90;99.90;;;;;;5114190;28;20195;-75
2022/11/06 08:01:23;;;;;;;2.10;1.40;;;12.40;99.90;;;;;;5114062;28;20197;-75
2022/11/06 08:03:49;;;;;;;2.30;1.47;;;12.50;99.90;;;;;;5113997;28;20244;-75
2022/11/06 08:06:14;;;;;;;4.50;1.60;;;12.30;99.90;;;;;;5113961;28;20153;-74
2022/11/06 08:08:40;;;;;;;3.07;1.67;;;11.90;99.90;;;;;;5113929;28;20196;-74
2022/11/06 08:11:08;;;;;;;2.10;1.90;;;11.80;99.90;;;;;;5114056;28;20188;-75
2022/11/06 08:13:34;;;;;;;4.20;2.37;;;11.90;99.90;;;;;;5113839;28;20161;-75
2022/11/06 08:16:11;;;;;;;11.40;1.70;;;12.30;99.90;;;;;;5113711;28;20450;-73
2022/11/06 08:18:37;;;;;;;3.73;1.80;;;13.00;99.90;;;;;;5113927;28;20740;-74
2022/11/06 08:21:04;;;;;;;3.40;1.57;;;13.20;99.90;;;;;;5112198;28;20574;-75
2022/11/06 08:23:30;;;;;;;2.50;1.67;;;13.80;99.90;;;;;;5113717;28;20903;-75
2022/11/06 08:25:57;;;;;;;8.47;2.50;;;14.10;99.90;;;;;;5113406;28;20445;-75
2022/11/06 08:28:26;;;;;;;1.80;1.70;;;14.60;99.90;;;;;;5113671;28;20830;-73
2022/11/06 08:30:53;;;;;;;5.17;1.90;;;15.30;99.90;;;;;;5113421;27;20466;-73
2022/11/06 08:33:19;;;;;;;4.80;2.27;;;15.60;99.90;;;;;;5113600;28;20395;-73
2022/11/06 08:35:45;;;;;;;5.47;2.13;;;15.60;99.90;;;;;;5113326;28;20446;-74
2022/11/06 08:38:10;;;;;;;2.70;1.97;;;15.80;99.90;;;;;;5113031;28;20420;-73
2022/11/06 08:40:37;;;;;;;3.90;1.70;;;16.10;99.90;;;;;;5112960;28;20434;-73
2022/11/06 08:43:06;;;;;;;3.40;2.03;;;16.00;99.90;;;;;;5113271;28;20173;-73
2022/11/06 08:45:32;;;;;;;3.60;1.60;;;16.00;99.90;;;;;;5112783;28;20763;-73
2022/11/06 08:48:02;;;;;;;4.80;1.83;;;15.70;99.90;;;;;;5113328;28;20420;-73
2022/11/06 08:50:28;;;;;;;7.43;2.10;;;15.40;99.90;;;;;;5112632;28;20939;-73
2022/11/06 08:53:05;;;;;;;4.40;2.23;;;15.40;99.90;;;;;;5113132;28;20414;-74
2022/11/06 08:55:35;;;;;;;2.80;1.60;;;15.20;99.90;;;;;;5113025;28;20438;-73
2022/11/06 08:58:00;;;;;;;4.17;2.30;;;15.30;99.90;;;;;;5111957;28;20426;-73
2022/11/06 09:00:27;;;;;;;2.63;1.60;;;15.50;99.90;;;;;;5112400;28;20934;-73
2022/11/06 09:03:04;;;;;;;2.60;1.60;;;15.60;99.90;;;;;;5112894;28;20176;-73
2022/11/06 09:05:30;;;;;;;3.33;1.53;;;15.90;99.90;;;;;;5112343;28;20415;-73
2022/11/06 09:07:57;;;;;;;2.83;1.93;;;16.30;99.90;;;;;;5112064;28;20409;-74
2022/11/06 09:10:23;;;;;;;4.43;1.63;;;16.20;99.90;;;;;;5102863;28;20435;-74
2022/11/06 09:12:49;;;;;;;1.93;1.10;;;16.30;99.90;;;;;;5108952;28;21020;-74
2022/11/06 09:15:15;;;;;;;3.10;1.70;;;15.90;99.90;;;;;;5112180;28;20570;-73
2022/11/06 09:17:42;;;;;;;3.30;1.83;;;15.80;99.90;;;;;;5111871;28;20175;-73
2022/11/06 09:20:09;;;;;;;5.37;1.90;;;15.40;99.90;;;;;;5112644;28;20202;-73
2022/11/06 09:22:34;;;;;;;4.00;1.17;;;15.50;99.90;;;;;;5112268;28;20479;-73
2022/11/06 09:24:59;;;;;;;1.33;1.20;;;15.60;99.90;;;;;;5112077;28;20430;-73
2022/11/06 09:27:25;;;;;;;1.50;1.23;;;15.80;99.90;;;;;;5112297;28;20576;-73
2022/11/06 09:29:50;;;;;;;4.60;1.50;;;16.00;99.90;;;;;;5112257;28;20204;-73
2022/11/06 09:32:16;;;;;;;1.83;1.50;;;15.80;99.90;;;;;;5112212;28;20233;-73
2022/11/06 09:34:41;;;;;;;2.93;1.30;;;15.30;99.90;;;;;;5111747;28;20184;-73
2022/11/06 09:37:07;;;;;;;3.00;1.80;;;14.80;99.90;;;;;;5110816;28;20173;-73
2022/11/06 09:39:32;;;;;;;2.33;1.80;;;14.40;99.90;;;;;;5111916;28;20193;-73
2022/11/06 09:42:17;;;;;;;4.73;2.07;;;14.30;99.90;;;;;;5112062;28;20783;-73
2022/11/06 09:45:02;;;;;;;6.83;2.17;;;14.10;99.90;;;;;;5111469;28;20183;-73
2022/11/06 09:47:33;;;;;;;6.57;1.60;;;14.40;99.90;;;;;;5112262;28;20425;-73
2022/11/06 09:49:59;;;;;;;2.33;1.53;;;14.80;99.90;;;;;;5111683;28;20419;-73
2022/11/06 09:52:30;;;;;;;5.00;1.80;;;15.50;99.90;;;;;;5111515;28;20414;-74
2022/11/06 09:55:01;;;;;;;4.03;1.77;;;16.60;99.90;;;;;;5111649;28;20573;-74
2022/11/06 09:57:38;;;;;;;1.33;1.20;;;18.40;99.90;;;;;;5112006;28;20611;-73
2022/11/06 10:00:05;;;;;;;2.97;1.60;;;19.40;99.90;;;;;;5112173;28;20425;-74
2022/11/06 10:02:44;;;;;;;4.93;1.90;;;20.10;99.90;;;;;;5111863;28;20414;-74
2022/11/06 10:05:10;;;;;;;5.30;1.37;;;20.30;97.80;;;;;;5111379;28;20410;-73
2022/11/06 10:07:39;;;;;;;3.20;1.30;;;20.20;90.70;;;;;;5112025;28;20405;-73
2022/11/06 10:10:10;;;;;;;1.93;1.00;;;19.70;88.50;;;;;;5111983;28;20184;-74
2022/11/06 10:13:00;;;;;;;2.40;1.23;;;19.90;90.60;;;;;;5112150;28;20406;-73
2022/11/06 10:16:21;;;;;;;2.97;1.53;;;20.50;88.90;;;;;;5111368;28;20454;-74
2022/11/06 10:19:01;;;;;;;3.43;1.63;;;20.40;84.90;;;;;;5077311;28;20425;-74
2022/11/06 10:21:36;;;;;;;3.33;1.80;;;20.50;83.50;;;;;;5111283;28;20973;-73
2022/11/06 10:24:17;;;;;;;1.30;1.00;;;21.40;80.90;;;;;;5111850;28;20509;-73
2022/11/06 10:26:56;;;;;;;2.60;1.17;;;20.50;78.10;;;;;;5110950;28;20757;-73
2022/11/06 10:30:00;;;;;;;4.90;1.40;;;19.20;82.90;;;;;;5111889;28;20402;-73
2022/11/06 10:32:40;;;;;;;4.20;1.37;;;18.50;86.50;;;;;;5104501;28;20984;-73
2022/11/06 10:35:19;;;;;;;3.40;1.20;;;17.20;90.70;;;;;;5111211;28;20446;-73
2022/11/06 10:37:59;;;;;;;3.33;1.30;;;16.60;93.10;;;;;;5110800;28;21099;-73
2022/11/06 10:40:30;;;;;;;3.43;1.40;;;15.80;96.20;;;;;;5111210;28;20499;-73
2022/11/06 10:43:07;;;;;;;3.83;1.23;;;15.00;99.90;;;;;;5111444;28;20419;-73
2022/11/06 10:45:35;;;;;;;3.30;1.37;;;14.40;99.90;;;;;;5111173;28;20436;-74
2022/11/06 10:48:18;;;;;;;1.90;1.30;;;14.20;99.90;;;;;;5111662;28;20403;-73
2022/11/06 10:51:24;;;;;;;3.43;1.40;;;13.90;99.90;;;;;;5111465;28;20906;-73
2022/11/06 10:54:04;;;;;;;3.63;1.50;;;13.70;99.90;;;;;;5111333;28;20479;-73
2022/11/06 10:56:48;;;;;;;6.33;2.07;;;13.50;99.90;;;;;;5111322;28;20398;-73
2022/11/06 10:59:15;;;;;;;1.63;1.10;;;13.40;99.90;;;;;;5111209;28;20410;-74
2022/11/06 11:01:40;;;;;;;5.30;1.30;;;13.50;99.90;;;;;;5113637;28;20491;-72
2022/11/06 11:04:06;;;;;;;2.60;1.87;;;13.70;99.90;;;;;;5114612;28;20442;-74
2022/11/06 11:06:31;;;;;;;5.20;2.20;;;13.70;99.90;;;;;;5113415;28;20229;-74
2022/11/06 11:08:57;;;;;;;5.00;2.20;;;13.60;99.90;;;;;;5114742;28;20190;-74
2022/11/06 11:11:25;;;;;;;4.43;2.00;;;13.50;99.90;;;;;;5114907;28;20180;-72
2022/11/06 11:13:59;;;;;;;3.10;2.50;;;13.30;99.90;;;;;;5114959;28;20173;-73
2022/11/06 11:16:41;;;;;;;4.60;2.70;;;13.30;99.90;;;;;;5114550;28;20410;-72
2022/11/06 11:19:25;;;;;;;3.20;2.00;;;13.20;99.90;;;;;;5114496;28;20930;-72
2022/11/06 11:22:02;;;;;;;8.00;2.40;;;13.10;99.90;;;;;;5114888;28;20566;-73
2022/11/06 11:24:28;;;;;;;2.60;1.77;;;13.00;99.90;;;;;;5114546;28;20422;-73
2022/11/06 11:27:00;;;;;;;3.10;2.37;;;13.00;99.90;;;;;;5114761;28;20420;-73
2022/11/06 11:29:46;;;;;;;5.90;2.43;;;13.20;99.90;;;;;;5114479;28;20169;-73
2022/11/06 11:32:14;;;;;;;2.90;2.20;;;13.30;99.90;;;;;;5094253;28;20534;-73
2022/11/06 11:34:49;;;;;;;3.07;2.03;;;13.20;99.90;;;;;;5093868;28;20447;-73
2022/11/06 11:37:31;;;;;;;2.77;2.23;;;13.10;99.90;;;;;;5111674;28;20414;-74
2022/11/06 11:40:22;;;;;;;2.60;1.90;;;13.20;99.90;;;;;;5114190;28;20446;-75
2022/11/06 11:42:48;;;;;;;3.70;2.23;;;13.20;99.90;;;;;;5114364;28;20411;-75
2022/11/06 11:45:17;;;;;;;3.33;2.40;;;13.80;99.90;;;;;;5112776;28;20758;-75
2022/11/06 11:47:46;;;;;;;4.33;2.20;;;14.00;99.90;;;;;;5114450;28;20407;-75
2022/11/06 11:50:32;;;;;;;3.00;2.10;;;14.00;99.90;;;;;;5114033;28;20813;-75
2022/11/06 11:53:20;;;;;;;2.03;1.83;;;13.70;99.90;;;;;;5114342;28;20757;-75
2022/11/06 11:55:49;;;;;;;5.27;2.10;;;13.50;99.90;;;;;;5112828;28;20466;-74
2022/11/06 11:58:25;;;;;;;2.90;2.23;;;13.70;99.90;;;;;;5114365;28;20430;-74
2022/11/06 12:01:00;;;;;;;2.70;1.97;;;13.60;99.90;;;;;;5113804;28;20434;-75
2022/11/06 12:03:41;;;;;;;3.13;2.33;;;13.50;99.90;;;;;;5114064;28;20398;-75
2022/11/06 12:06:15;;;;;;;4.53;2.90;;;13.10;99.90;;;;;;5112248;28;20421;-75
2022/11/06 12:08:47;;;;;;;5.53;2.33;;;13.00;99.90;;;;;;5113944;27;20413;-74
2022/11/06 12:11:19;;;;;;;6.60;2.03;;;12.90;99.90;;;;;;5113693;28;20461;-75
2022/11/06 12:14:04;;;;;;;3.53;2.50;;;12.80;99.90;;;;;;5113277;28;20409;-75
2022/11/06 12:16:30;;;;;;;4.63;1.73;;;12.70;99.90;;;;;;5113184;28;20969;-75
2022/11/06 12:18:57;;;;;;;3.00;1.93;;;12.50;99.90;;;;;;5113221;28;20415;-75
2022/11/06 12:21:28;;;;;;;2.17;1.60;;;12.50;99.90;;;;;;5113532;28;20209;-75
2022/11/06 12:24:11;;;;;;;5.40;2.60;;;12.50;99.90;;;;;;5113515;28;20790;-75
2022/11/06 12:26:55;;;;;;;3.13;1.90;;;12.70;99.90;;;;;;5112108;28;20422;-75
2022/11/06 12:29:32;;;;;;;2.43;1.73;;;12.90;99.90;;;;;;5111987;28;20413;-75
2022/11/06 12:32:04;;;;;;;2.57;1.90;;;13.10;99.90;;;;;;5113239;28;20418;-74
2022/11/06 12:34:39;;;;;;;3.77;2.30;;;13.20;99.90;;;;;;5113013;28;20470;-74
2022/11/06 12:37:24;;;;;;;5.53;2.40;;;13.40;99.90;;;;;;5113496;28;20390;-74
2022/11/06 12:40:05;;;;;;;2.13;1.73;;;13.40;99.90;;;;;;5111969;28;20438;-74
2022/11/06 12:42:33;;;;;;;2.20;1.60;;;13.60;99.90;;;;;;5113264;28;20414;-74
2022/11/06 12:44:58;;;;;;;2.20;1.90;;;14.40;99.90;;;;;;5113013;28;20430;-74
2022/11/06 12:47:42;;;;;;;3.60;2.00;;;15.30;99.90;;;;;;5113405;28;20755;-74
2022/11/06 12:50:25;;;;;;;3.10;2.10;;;15.60;99.90;;;;;;5112893;28;20442;-72
2022/11/06 12:53:14;;;;;;;3.00;1.87;;;15.70;99.90;;;;;;5113251;28;20463;-75
2022/11/06 12:55:50;;;;;;;2.43;2.23;;;16.20;99.90;;;;;;5112609;28;20951;-74
2022/11/06 12:58:45;;;;;;;2.57;2.13;;;16.20;99.90;;;;;;5113089;28;20413;-74
2022/11/06 13:01:28;;;;;;;2.80;1.80;;;15.90;99.90;;;;;;5112745;28;20427;-74
2022/11/06 13:04:12;;;;;;;2.97;1.90;;;15.50;99.90;;;;;;5112886;28;20497;-72
2022/11/06 13:07:07;;;;;;;7.37;2.87;;;15.10;99.90;;;;;;5112568;28;20419;-75
2022/11/06 13:10:10;;;;;;;1.60;1.50;;;14.70;99.90;;;;;;5094077;28;20447;-75
2022/11/06 13:13:05;;;;;;;2.13;1.50;;;14.60;99.90;;;;;;5111594;28;20493;-75
2022/11/06 13:15:53;;;;;;;4.17;1.50;;;14.50;99.90;;;;;;5103755;28;20837;-75
2022/11/06 13:18:54;;;;;;;2.03;1.33;;;14.70;99.90;;;;;;5112391;28;20399;-74
2022/11/06 13:21:27;;;;;;;1.70;1.50;;;14.80;99.90;;;;;;5039463;28;20478;-75
2022/11/06 13:24:06;;;;;;;2.70;2.13;;;14.80;99.90;;;;;;5093807;28;20423;-75
2022/11/06 13:26:37;;;;;;;4.70;1.80;;;14.70;99.90;;;;;;5112131;28;20395;-75
2022/11/06 13:29:08;;;;;;;2.07;1.57;;;14.50;99.90;;;;;;5112177;28;20482;-75